createdAt,value
2019-01-30T00:01:24.523Z,-4.70
2019-01-30T00:03:51.685Z,-4.70
2019-01-30T00:06:18.927Z,-4.70
2019-01-30T00:08:46.063Z,-4.60
2019-01-30T00:11:13.250Z,-4.60
2019-01-30T00:13:40.477Z,-4.50
2019-01-30T00:16:07.687Z,-4.40
2019-01-30T00:18:34.861Z,-4.60
2019-01-30T00:21:02.147Z,-4.80
2019-01-30T00:23:29.381Z,-4.90
2019-01-30T00:25:56.641Z,-4.90
2019-01-30T00:28:23.911Z,-4.90
2019-01-30T00:30:51.118Z,-4.90
2019-01-30T00:33:18.367Z,-5.00
2019-01-30T00:35:45.602Z,-4.80
2019-01-30T00:38:12.877Z,-4.80
2019-01-30T00:40:40.149Z,-4.90
2019-01-30T00:43:07.418Z,-5.00
2019-01-30T00:45:34.650Z,-5.00
2019-01-30T00:48:01.828Z,-5.10
2019-01-30T00:50:29.118Z,-5.10
2019-01-30T00:52:56.420Z,-5.00
2019-01-30T00:55:23.591Z,-5.20
2019-01-30T00:57:50.874Z,-5.10
2019-01-30T01:00:19.309Z,-5.20
2019-01-30T01:02:46.571Z,-5.20
2019-01-30T01:05:14.351Z,-5.20
2019-01-30T01:07:41.842Z,-5.30
2019-01-30T01:10:10.683Z,-5.30
2019-01-30T01:12:37.917Z,-5.50
2019-01-30T01:15:08.052Z,-5.50
2019-01-30T01:17:35.327Z,-5.40
2019-01-30T01:20:03.971Z,-5.40
2019-01-30T01:22:31.236Z,-5.40
2019-01-30T01:24:58.467Z,-5.40
2019-01-30T01:27:25.622Z,-5.40
2019-01-30T01:29:52.739Z,-5.50
2019-01-30T01:32:19.899Z,-5.70
2019-01-30T01:34:47.142Z,-5.70
2019-01-30T01:37:14.491Z,-5.80
2019-01-30T01:39:41.760Z,-5.80
2019-01-30T01:42:08.993Z,-5.70
2019-01-30T01:44:36.254Z,-5.60
2019-01-30T01:47:03.373Z,-5.60
2019-01-30T01:49:30.670Z,-5.70
2019-01-30T01:51:57.884Z,-5.70
2019-01-30T01:54:25.206Z,-5.80
2019-01-30T01:56:52.382Z,-5.90
2019-01-30T01:59:19.526Z,-5.80
2019-01-30T02:01:46.702Z,-5.80
2019-01-30T02:04:13.962Z,-5.90
2019-01-30T02:06:41.310Z,-5.80
2019-01-30T02:09:08.546Z,-5.70
2019-01-30T02:11:35.806Z,-5.70
2019-01-30T02:14:03.342Z,-5.80
2019-01-30T02:16:30.488Z,-5.90
2019-01-30T02:18:57.744Z,-6.10
2019-01-30T02:21:25.023Z,-6.20
2019-01-30T02:23:52.256Z,-6.10
2019-01-30T02:26:19.507Z,-6.10
2019-01-30T02:28:46.778Z,-6.10
2019-01-30T02:31:14.029Z,-6.20
2019-01-30T02:33:41.285Z,-6.10
2019-01-30T02:36:08.580Z,-6.10
2019-01-30T02:38:35.825Z,-6.00
2019-01-30T02:41:03.079Z,-6.00
2019-01-30T02:43:30.249Z,-6.00
2019-01-30T02:45:57.552Z,-6.00
2019-01-30T02:48:24.821Z,-6.00
2019-01-30T02:50:52.089Z,-6.20
2019-01-30T02:53:19.353Z,-6.10
2019-01-30T02:55:46.695Z,-6.10
2019-01-30T02:58:13.971Z,-6.20
2019-01-30T03:00:41.224Z,-6.20
2019-01-30T03:03:08.459Z,-6.10
2019-01-30T03:05:35.637Z,-6.20
2019-01-30T03:08:02.986Z,-6.20
2019-01-30T03:10:30.259Z,-6.20
2019-01-30T03:12:57.533Z,-6.40
2019-01-30T03:15:25.095Z,-6.30
2019-01-30T03:17:52.366Z,-6.30
2019-01-30T03:20:21.528Z,-6.40
2019-01-30T03:22:48.776Z,-6.30
2019-01-30T03:25:16.656Z,-6.30
2019-01-30T03:27:43.990Z,-6.30
2019-01-30T03:30:15.200Z,-6.30
2019-01-30T03:32:42.430Z,-6.40
2019-01-30T03:35:09.693Z,-6.40
2019-01-30T03:37:36.915Z,-6.40
2019-01-30T03:40:05.251Z,-6.30
2019-01-30T03:42:32.542Z,-6.20
2019-01-30T03:44:59.834Z,-6.20
2019-01-30T03:47:26.973Z,-6.30
2019-01-30T03:49:54.235Z,-6.30
2019-01-30T03:52:21.507Z,-6.40
2019-01-30T03:54:48.665Z,-6.40
2019-01-30T03:57:15.942Z,-6.40
2019-01-30T03:59:43.182Z,-6.50
2019-01-30T04:02:10.441Z,-6.60
2019-01-30T04:04:37.717Z,-6.50
2019-01-30T04:07:05.039Z,-6.60
2019-01-30T04:09:34.163Z,-6.60
2019-01-30T04:12:01.387Z,-6.60
2019-01-30T04:14:28.641Z,-6.60
2019-01-30T04:16:55.783Z,-6.50
2019-01-30T04:19:23.063Z,-6.50
2019-01-30T04:21:50.397Z,-6.50
2019-01-30T04:24:17.741Z,-6.40
2019-01-30T04:26:44.894Z,-6.50
2019-01-30T04:29:12.140Z,-6.50
2019-01-30T04:31:39.436Z,-6.40
2019-01-30T04:34:07.899Z,-6.60
2019-01-30T04:36:35.068Z,-6.70
2019-01-30T04:39:03.602Z,-6.70
2019-01-30T04:41:30.734Z,-6.80
2019-01-30T04:43:57.914Z,-6.90
2019-01-30T04:46:25.141Z,-6.80
2019-01-30T04:48:52.422Z,-6.90
2019-01-30T04:51:19.719Z,-7.00
2019-01-30T04:53:46.972Z,-6.90
2019-01-30T04:56:14.155Z,-6.80
2019-01-30T04:58:41.430Z,-6.90
2019-01-30T05:01:08.799Z,-7.00
2019-01-30T05:03:36.044Z,-6.90
2019-01-30T05:06:03.562Z,-6.80
2019-01-30T05:08:30.716Z,-6.70
2019-01-30T05:10:58.045Z,-6.70
2019-01-30T05:13:25.285Z,-6.70
2019-01-30T05:15:54.409Z,-6.60
2019-01-30T05:18:21.768Z,-6.60
2019-01-30T05:20:49.065Z,-6.70
2019-01-30T05:23:16.235Z,-6.60
2019-01-30T05:25:43.383Z,-6.60
2019-01-30T05:28:10.859Z,-6.50
2019-01-30T05:30:38.424Z,-6.50
2019-01-30T05:33:05.680Z,-6.80
2019-01-30T05:35:32.929Z,-6.70
2019-01-30T05:38:00.210Z,-6.80
2019-01-30T05:40:27.452Z,-6.90
2019-01-30T05:42:54.748Z,-6.90
2019-01-30T05:45:22.109Z,-6.80
2019-01-30T05:47:49.391Z,-6.90
2019-01-30T05:50:16.749Z,-6.70
2019-01-30T05:52:44.119Z,-6.40
2019-01-30T05:55:12.239Z,-6.40
2019-01-30T05:57:39.520Z,-6.40
2019-01-30T06:00:11.506Z,-6.30
2019-01-30T06:02:38.803Z,-6.40
2019-01-30T06:05:06.590Z,-6.30
2019-01-30T06:07:33.782Z,-6.20
2019-01-30T06:10:01.117Z,-6.20
2019-01-30T06:12:28.485Z,-6.10
2019-01-30T06:14:55.664Z,-6.00
2019-01-30T06:17:22.964Z,-6.00
2019-01-30T06:19:50.126Z,-6.00
2019-01-30T06:22:17.394Z,-5.90
2019-01-30T06:24:44.721Z,-5.80
2019-01-30T06:27:12.001Z,-5.80
2019-01-30T06:29:41.084Z,-5.70
2019-01-30T06:32:08.332Z,-5.60
2019-01-30T06:34:35.659Z,-5.50
2019-01-30T06:37:02.923Z,-5.50
2019-01-30T06:39:30.198Z,-5.50
2019-01-30T06:41:57.336Z,-5.30
2019-01-30T06:44:24.624Z,-5.10
2019-01-30T06:46:51.969Z,-5.10
2019-01-30T06:49:19.241Z,-4.90
2019-01-30T06:51:46.522Z,-5.00
2019-01-30T06:54:13.826Z,-4.90
2019-01-30T06:56:42.693Z,-5.00
2019-01-30T06:59:09.930Z,-5.00
2019-01-30T07:01:37.208Z,-5.00
2019-01-30T07:04:04.430Z,-4.90
2019-01-30T07:06:31.684Z,-4.90
2019-01-30T07:08:58.898Z,-4.80
2019-01-30T07:11:26.182Z,-4.80
2019-01-30T07:13:53.327Z,-4.60
2019-01-30T07:16:20.489Z,-4.50
2019-01-30T07:18:47.771Z,-4.40
2019-01-30T07:21:15.101Z,-4.30
2019-01-30T07:23:42.390Z,-4.40
2019-01-30T07:26:09.650Z,-4.40
2019-01-30T07:28:36.902Z,-4.40
2019-01-30T07:31:04.387Z,-4.30
2019-01-30T07:33:31.624Z,-4.00
2019-01-30T07:35:59.029Z,-3.90
2019-01-30T07:38:26.329Z,-3.80
2019-01-30T07:40:53.605Z,-3.70
2019-01-30T07:43:22.914Z,-3.70
2019-01-30T07:45:50.243Z,-3.70
2019-01-30T07:48:17.572Z,-3.60
2019-01-30T07:50:44.837Z,-3.60
2019-01-30T07:53:12.138Z,-3.50
2019-01-30T07:55:39.381Z,-3.50
2019-01-30T07:58:06.661Z,-3.50
2019-01-30T08:00:33.901Z,-3.30
2019-01-30T08:03:01.231Z,-3.40
2019-01-30T08:05:29.494Z,-3.30
2019-01-30T08:07:56.751Z,-3.30
2019-01-30T08:10:24.129Z,-3.40
2019-01-30T08:12:51.378Z,-3.40
2019-01-30T08:15:18.793Z,-3.20
2019-01-30T08:17:45.953Z,-3.10
2019-01-30T08:20:15.417Z,-3.00
2019-01-30T08:22:42.708Z,-2.90
2019-01-30T08:25:11.284Z,-2.80
2019-01-30T08:27:38.637Z,-2.70
2019-01-30T08:30:09.924Z,-2.80
2019-01-30T08:32:37.350Z,-2.30
2019-01-30T08:35:05.755Z,-2.10
2019-01-30T08:37:33.038Z,-2.10
2019-01-30T08:40:00.276Z,-2.20
2019-01-30T08:42:27.448Z,-2.10
2019-01-30T08:44:54.672Z,-2.00
2019-01-30T08:47:21.972Z,-1.80
2019-01-30T08:49:49.201Z,-1.60
2019-01-30T08:52:16.391Z,-1.60
2019-01-30T08:54:43.610Z,-1.60
2019-01-30T08:57:10.920Z,-1.60
2019-01-30T08:59:38.182Z,-1.50
2019-01-30T09:02:05.422Z,-1.60
2019-01-30T09:04:32.727Z,-1.60
2019-01-30T09:06:59.882Z,-1.60
2019-01-30T09:09:27.367Z,-1.40
2019-01-30T09:11:54.644Z,-1.50
2019-01-30T09:14:21.917Z,-1.80
2019-01-30T09:16:49.045Z,-2.00
2019-01-30T09:19:16.311Z,-1.90
2019-01-30T09:21:43.566Z,-1.60
2019-01-30T09:24:10.852Z,-1.30
2019-01-30T09:26:38.022Z,-1.00
2019-01-30T09:29:05.293Z,-0.60
2019-01-30T09:31:32.569Z,-0.70
2019-01-30T09:34:01.675Z,-0.40
2019-01-30T09:36:29.181Z,-0.30
2019-01-30T09:38:56.558Z,-0.10
2019-01-30T09:41:23.839Z,0.00
2019-01-30T09:43:51.110Z,0.00
2019-01-30T09:46:18.426Z,-0.60
2019-01-30T09:48:45.781Z,-0.80
2019-01-30T09:51:13.142Z,-0.70
2019-01-30T09:53:40.507Z,-0.40
2019-01-30T09:56:07.775Z,-0.30
2019-01-30T09:58:35.012Z,-0.30
2019-01-30T10:01:02.202Z,-0.10
2019-01-30T10:03:36.001Z,0.10
2019-01-30T10:05:58.566Z,0.00
2019-01-30T10:08:25.858Z,-0.20
2019-01-30T10:10:53.110Z,-0.10
2019-01-30T10:13:20.382Z,-0.10
2019-01-30T10:15:47.635Z,0.30
2019-01-30T10:18:14.915Z,0.40
2019-01-30T10:20:44.242Z,0.50
2019-01-30T10:23:11.604Z,0.40
2019-01-30T10:25:38.905Z,0.50
2019-01-30T10:28:16.180Z,0.60
2019-01-30T10:30:37.671Z,0.70
2019-01-30T10:33:04.913Z,0.90
2019-01-30T10:35:32.231Z,0.90
2019-01-30T10:37:59.552Z,1.00
2019-01-30T10:40:26.915Z,1.30
2019-01-30T10:42:57.238Z,1.30
2019-01-30T10:45:23.901Z,1.40
2019-01-30T10:47:51.373Z,1.40
2019-01-30T10:50:23.269Z,1.70
2019-01-30T10:52:50.622Z,1.60
2019-01-30T10:55:20.190Z,1.70
2019-01-30T10:57:49.490Z,1.90
2019-01-30T11:00:21.806Z,1.90
2019-01-30T11:02:49.071Z,1.90
2019-01-30T11:05:16.376Z,1.90
2019-01-30T11:07:43.590Z,2.00
2019-01-30T11:10:12.324Z,2.00
2019-01-30T11:12:39.569Z,2.10
2019-01-30T11:15:08.827Z,2.20
2019-01-30T11:17:35.972Z,2.40
2019-01-30T11:20:05.040Z,2.80
2019-01-30T11:22:32.283Z,2.90
2019-01-30T11:24:59.471Z,3.20
2019-01-30T11:27:26.860Z,3.50
2019-01-30T11:29:54.106Z,3.80
2019-01-30T11:32:21.382Z,4.10
2019-01-30T11:34:48.731Z,4.20
2019-01-30T11:37:16.188Z,4.60
2019-01-30T11:39:43.436Z,4.70
2019-01-30T11:42:10.690Z,4.50
2019-01-30T11:44:37.955Z,4.60
2019-01-30T11:47:05.095Z,4.50
2019-01-30T11:49:34.168Z,4.60
2019-01-30T11:52:01.539Z,4.40
2019-01-30T11:54:38.517Z,4.20
2019-01-30T11:56:58.044Z,4.10
2019-01-30T11:59:25.235Z,4.10
2019-01-30T12:01:52.544Z,4.60
2019-01-30T12:04:19.839Z,4.30
2019-01-30T12:06:47.089Z,4.10
2019-01-30T12:09:14.378Z,4.20
2019-01-30T12:11:41.991Z,4.60
2019-01-30T12:14:09.298Z,4.80
2019-01-30T12:16:36.674Z,4.90
2019-01-30T12:19:03.940Z,5.30
2019-01-30T12:21:31.117Z,5.80
2019-01-30T12:23:58.493Z,6.00
2019-01-30T12:26:25.775Z,6.10
2019-01-30T12:28:53.009Z,6.50
2019-01-30T12:31:20.178Z,6.60
2019-01-30T12:33:47.457Z,6.60
2019-01-30T12:36:14.734Z,6.40
2019-01-30T12:38:41.907Z,6.30
2019-01-30T12:41:09.188Z,5.80
2019-01-30T12:43:36.446Z,5.40
2019-01-30T12:46:03.832Z,5.10
2019-01-30T12:48:31.072Z,4.80
2019-01-30T12:50:58.363Z,4.60
2019-01-30T12:53:25.666Z,4.80
2019-01-30T12:55:52.852Z,4.80
2019-01-30T12:58:20.130Z,4.90
2019-01-30T13:00:47.454Z,5.00
2019-01-30T13:03:14.785Z,5.00
2019-01-30T13:05:42.078Z,4.90
2019-01-30T13:08:09.398Z,4.80
2019-01-30T13:10:36.679Z,4.80
2019-01-30T13:13:04.257Z,4.90
2019-01-30T13:15:31.504Z,5.00
2019-01-30T13:17:58.775Z,5.00
2019-01-30T13:20:26.041Z,5.10
2019-01-30T13:22:53.297Z,4.80
2019-01-30T13:25:23.159Z,4.90
2019-01-30T13:27:50.543Z,4.80
2019-01-30T13:30:20.241Z,4.80
2019-01-30T13:32:48.525Z,4.70
2019-01-30T13:35:15.689Z,4.70
2019-01-30T13:37:43.002Z,4.60
2019-01-30T13:40:13.821Z,4.60
2019-01-30T13:42:41.015Z,4.50
2019-01-30T13:45:09.502Z,4.50
2019-01-30T13:47:36.756Z,4.60
2019-01-30T13:50:07.775Z,4.70
2019-01-30T13:52:35.042Z,4.70
2019-01-30T13:55:02.574Z,4.50
2019-01-30T13:57:29.826Z,4.40
2019-01-30T13:59:57.196Z,4.30
2019-01-30T14:02:24.526Z,4.20
2019-01-30T14:04:59.292Z,4.20
2019-01-30T14:07:21.008Z,4.20
2019-01-30T14:09:48.340Z,4.20
2019-01-30T14:12:15.712Z,4.20
2019-01-30T14:14:42.992Z,4.20
2019-01-30T14:17:10.215Z,4.10
2019-01-30T14:19:37.577Z,4.00
2019-01-30T14:22:04.980Z,4.10
2019-01-30T14:24:32.127Z,4.00
2019-01-30T14:26:59.465Z,4.00
2019-01-30T14:29:26.793Z,4.00
2019-01-30T14:31:54.049Z,4.00
2019-01-30T14:34:21.352Z,3.90
2019-01-30T14:36:48.616Z,3.90
2019-01-30T14:39:15.993Z,3.90
2019-01-30T14:41:43.273Z,3.80
2019-01-30T14:44:10.596Z,3.80
2019-01-30T14:46:37.984Z,3.80
2019-01-30T14:49:05.451Z,3.80
2019-01-30T14:51:33.483Z,3.70
2019-01-30T14:54:00.825Z,3.70
2019-01-30T14:56:28.129Z,3.50
2019-01-30T14:58:55.406Z,3.50
2019-01-30T15:01:22.793Z,3.40
2019-01-30T15:03:50.128Z,3.40
2019-01-30T15:06:17.572Z,3.30
2019-01-30T15:08:45.198Z,3.20
2019-01-30T15:11:12.429Z,3.10
2019-01-30T15:13:39.873Z,3.10
2019-01-30T15:16:08.224Z,3.10
2019-01-30T15:18:35.416Z,3.00
2019-01-30T15:21:02.730Z,3.00
2019-01-30T15:23:30.036Z,2.90
2019-01-30T15:25:57.290Z,2.90
2019-01-30T15:28:24.543Z,2.90
2019-01-30T15:30:51.793Z,2.90
2019-01-30T15:33:19.075Z,2.80
2019-01-30T15:35:46.328Z,2.80
2019-01-30T15:38:15.732Z,2.70
2019-01-30T15:40:43.098Z,2.70
2019-01-30T15:43:10.371Z,2.70
2019-01-30T15:45:37.796Z,2.60
2019-01-30T15:48:05.106Z,2.60
2019-01-30T15:50:33.314Z,2.60
2019-01-30T15:53:01.761Z,2.60
2019-01-30T15:55:29.018Z,2.60
2019-01-30T15:58:04.649Z,2.50
2019-01-30T16:00:34.665Z,2.50
2019-01-30T16:03:01.967Z,2.40
2019-01-30T16:05:29.207Z,2.40
2019-01-30T16:07:56.431Z,2.40
2019-01-30T16:10:23.612Z,2.40
2019-01-30T16:12:50.961Z,2.30
2019-01-30T16:15:21.878Z,2.30
2019-01-30T16:17:49.210Z,2.30
2019-01-30T16:20:16.489Z,2.20
2019-01-30T16:22:43.710Z,2.30
2019-01-30T16:25:11.170Z,2.20
2019-01-30T16:27:38.414Z,2.20
2019-01-30T16:30:08.926Z,2.10
2019-01-30T16:32:36.202Z,2.20
2019-01-30T16:35:04.298Z,2.10
2019-01-30T16:37:31.539Z,2.10
2019-01-30T16:39:58.867Z,2.10
2019-01-30T16:42:26.100Z,2.10
2019-01-30T16:44:53.387Z,2.00
2019-01-30T16:47:20.652Z,2.00
2019-01-30T16:49:47.805Z,2.00
2019-01-30T16:52:15.083Z,2.00
2019-01-30T16:54:42.377Z,1.90
2019-01-30T16:57:09.835Z,1.90
2019-01-30T16:59:37.178Z,1.90
2019-01-30T17:02:04.680Z,1.80
2019-01-30T17:04:31.987Z,1.80
2019-01-30T17:06:59.139Z,1.80
2019-01-30T17:09:26.411Z,1.80
2019-01-30T17:11:53.661Z,1.80
2019-01-30T17:14:21.017Z,1.80
2019-01-30T17:16:48.348Z,1.90
2019-01-30T17:19:15.716Z,1.90
2019-01-30T17:21:42.985Z,1.90
2019-01-30T17:24:10.222Z,1.80
2019-01-30T17:26:37.400Z,1.80
2019-01-30T17:29:04.650Z,1.70
2019-01-30T17:31:31.997Z,1.70
2019-01-30T17:33:59.135Z,1.60
2019-01-30T17:36:26.317Z,1.50
2019-01-30T17:38:53.549Z,1.50
2019-01-30T17:41:20.730Z,1.50
2019-01-30T17:43:47.986Z,1.40
2019-01-30T17:46:15.136Z,1.40
2019-01-30T17:48:42.391Z,1.40
2019-01-30T17:51:09.668Z,1.50
2019-01-30T17:53:36.787Z,1.60
2019-01-30T17:56:04.118Z,1.60
2019-01-30T17:58:34.251Z,1.50
2019-01-30T18:01:01.984Z,1.40
2019-01-30T18:03:29.289Z,1.40
2019-01-30T18:05:56.593Z,1.40
2019-01-30T18:08:23.896Z,1.40
2019-01-30T18:10:51.167Z,1.40
2019-01-30T18:13:18.454Z,1.40
2019-01-30T18:15:45.879Z,1.40
2019-01-30T18:18:13.266Z,1.40
2019-01-30T18:20:40.630Z,1.40
2019-01-30T18:23:07.937Z,1.40
2019-01-30T18:25:35.213Z,1.30
2019-01-30T18:28:02.645Z,1.30
2019-01-30T18:30:29.901Z,1.40
2019-01-30T18:32:57.058Z,1.30
2019-01-30T18:35:24.375Z,1.30
2019-01-30T18:37:51.551Z,1.20
2019-01-30T18:40:19.838Z,1.20
2019-01-30T18:42:47.127Z,1.20
2019-01-30T18:45:17.247Z,1.20
2019-01-30T18:47:44.383Z,1.10
2019-01-30T18:50:14.382Z,1.10
2019-01-30T18:52:41.645Z,1.10
2019-01-30T18:55:09.019Z,1.10
2019-01-30T18:57:36.279Z,1.20
2019-01-30T19:00:06.988Z,1.20
2019-01-30T19:02:34.282Z,1.20
2019-01-30T19:05:01.551Z,1.30
2019-01-30T19:07:28.829Z,1.30
2019-01-30T19:09:56.075Z,1.30
2019-01-30T19:12:23.337Z,1.20
2019-01-30T19:14:50.626Z,1.20
2019-01-30T19:17:17.873Z,1.20
2019-01-30T19:19:45.099Z,1.20
2019-01-30T19:22:12.333Z,1.20
2019-01-30T19:24:39.626Z,1.20
2019-01-30T19:27:06.948Z,1.10
2019-01-30T19:29:34.205Z,0.90
2019-01-30T19:32:01.483Z,0.90
2019-01-30T19:34:28.808Z,0.80
2019-01-30T19:37:03.246Z,0.80
2019-01-30T19:39:25.370Z,0.70
2019-01-30T19:41:52.741Z,0.70
2019-01-30T19:44:19.979Z,0.80
2019-01-30T19:46:47.267Z,0.70
2019-01-30T19:49:14.541Z,0.70
2019-01-30T19:51:41.845Z,0.70
2019-01-30T19:54:09.119Z,0.60
2019-01-30T19:56:36.390Z,0.60
2019-01-30T19:59:03.759Z,0.60
2019-01-30T20:01:36.183Z,0.50
2019-01-30T20:04:00.143Z,0.50
2019-01-30T20:06:27.351Z,0.50
2019-01-30T20:08:59.294Z,0.40
2019-01-30T20:11:26.775Z,0.40
2019-01-30T20:13:54.027Z,0.40
2019-01-30T20:16:21.299Z,0.30
2019-01-30T20:18:48.607Z,0.20
2019-01-30T20:21:15.927Z,0.30
2019-01-30T20:23:43.261Z,0.30
2019-01-30T20:26:10.533Z,0.20
2019-01-30T20:28:37.825Z,0.10
2019-01-30T20:31:05.175Z,0.10
2019-01-30T20:33:32.474Z,0.00
2019-01-30T20:35:59.840Z,0.00
2019-01-30T20:38:27.230Z,0.00
2019-01-30T20:40:54.515Z,0.00
2019-01-30T20:43:21.792Z,-0.10
2019-01-30T20:45:48.917Z,-0.10
2019-01-30T20:48:16.408Z,-0.20
2019-01-30T20:50:43.759Z,-0.30
2019-01-30T20:53:11.184Z,-0.30
2019-01-30T20:55:38.589Z,-0.40
2019-01-30T20:58:06.019Z,-0.50
2019-01-30T21:00:35.503Z,-0.50
2019-01-30T21:03:02.877Z,-0.60
2019-01-30T21:05:30.239Z,-0.40
2019-01-30T21:07:57.873Z,-0.40
2019-01-30T21:10:27.452Z,-0.40
2019-01-30T21:12:54.695Z,-0.50
2019-01-30T21:15:21.958Z,-0.60
2019-01-30T21:17:49.417Z,-0.60
2019-01-30T21:20:16.696Z,-0.50
2019-01-30T21:22:43.943Z,-0.60
2019-01-30T21:25:13.801Z,-0.60
2019-01-30T21:27:41.052Z,-0.70
2019-01-30T21:30:09.850Z,-0.70
2019-01-30T21:32:37.134Z,-0.70
2019-01-30T21:35:04.914Z,-0.80
2019-01-30T21:37:32.214Z,-0.90
2019-01-30T21:39:59.466Z,-0.90
2019-01-30T21:42:26.676Z,-0.90
2019-01-30T21:44:53.962Z,-0.90
2019-01-30T21:47:21.336Z,-0.50
2019-01-30T21:49:48.494Z,-0.30
2019-01-30T21:52:15.777Z,-0.50
2019-01-30T21:54:43.052Z,-0.60
2019-01-30T21:57:10.330Z,-0.90
2019-01-30T21:59:37.630Z,-1.00
2019-01-30T22:02:08.352Z,-1.10
2019-01-30T22:04:33.963Z,-1.20
2019-01-30T22:07:01.199Z,-1.40
2019-01-30T22:09:28.597Z,-1.40
2019-01-30T22:11:55.831Z,-1.50
2019-01-30T22:14:23.105Z,-1.60
2019-01-30T22:16:50.265Z,-1.60
2019-01-30T22:19:17.577Z,-1.70
2019-01-30T22:21:44.758Z,-1.70
2019-01-30T22:24:12.011Z,-1.80
2019-01-30T22:26:39.262Z,-1.80
2019-01-30T22:29:06.441Z,-1.80
2019-01-30T22:31:33.789Z,-1.90
2019-01-30T22:34:01.867Z,-1.90
2019-01-30T22:36:29.127Z,-1.90
2019-01-30T22:38:56.370Z,-1.90
2019-01-30T22:41:23.654Z,-2.00
2019-01-30T22:43:50.982Z,-2.00
2019-01-30T22:46:18.266Z,-2.00
2019-01-30T22:48:45.552Z,-2.00
2019-01-30T22:51:12.783Z,-2.00
2019-01-30T22:53:40.030Z,-2.00
2019-01-30T22:56:07.334Z,-2.10
2019-01-30T22:58:34.526Z,-2.10
2019-01-30T23:01:21.193Z,-2.10
2019-01-30T23:04:27.767Z,-2.20
2019-01-30T23:07:14.877Z,-2.20
2019-01-30T23:10:11.749Z,-2.30
2019-01-30T23:13:13.082Z,-2.20
2019-01-30T23:15:48.492Z,-2.20
2019-01-30T23:18:43.499Z,-2.20
2019-01-30T23:21:15.338Z,-2.10
2019-01-30T23:24:42.472Z,-2.10
2019-01-30T23:27:21.035Z,-2.00
2019-01-30T23:30:26.184Z,-2.00
2019-01-30T23:33:37.580Z,-2.00
2019-01-30T23:36:48.655Z,-1.90
2019-01-30T23:39:51.027Z,-1.90
2019-01-30T23:43:09.577Z,-1.90
2019-01-30T23:45:52.997Z,-1.90
2019-01-30T23:49:02.356Z,-1.90
2019-01-30T23:51:45.527Z,-1.90
2019-01-30T23:54:38.909Z,-2.00
2019-01-30T23:57:13.859Z,-2.00
